Time;durP1;ratioP1;P1;durP2;ratioP2;P2;SDS_P1;SDS_P2;PMS_P1;PMS_P2;Temp;Humidity;BMP_temperature;BMP_pressure;BME280_temperature;BME280_humidity;BME280_pressure;Samples;Min_cycle;Max_cycle;Signal;HPM_P1;HPM_P2
2021/12/07 00:01:10;;;;;;;36.60;14.27;;;;;;;-143.84;100.00;44477.88;5092356;28;20801;-73
2021/12/07 00:03:37;;;;;;;38.77;15.63;;;;;;;-143.84;100.00;44483.56;5091997;28;20894;-73
2021/12/07 00:06:05;;;;;;;20.67;14.80;;;;;;;-143.84;100.00;44472.16;5091932;28;20505;-73
2021/12/07 00:08:32;;;;;;;22.20;14.40;;;;;;;-143.84;100.00;44468.34;5091794;28;20457;-73
2021/12/07 00:11:01;;;;;;;29.60;14.63;;;;;;;-143.84;100.00;44458.81;5091811;28;21017;-73
2021/12/07 00:13:33;;;;;;;24.50;15.07;;;;;;;-143.84;100.00;44460.72;5092318;28;20957;-73
2021/12/07 00:16:00;;;;;;;27.60;14.63;;;;;;;-143.84;100.00;44464.53;5092208;28;20447;-74
2021/12/07 00:18:27;;;;;;;36.47;16.73;;;;;;;-143.84;100.00;44464.53;5092077;28;20949;-74
2021/12/07 00:20:54;;;;;;;28.00;15.50;;;;;;;-143.84;100.00;44434.09;5091943;28;20431;-74
2021/12/07 00:23:21;;;;;;;31.70;15.87;;;;;;;-143.84;100.00;44418.84;5091374;28;20505;-74
2021/12/07 00:25:49;;;;;;;18.80;14.50;;;;;;;-143.84;100.00;44416.94;5091762;28;20528;-74
2021/12/07 00:28:20;;;;;;;21.10;15.07;;;;;;;-143.84;100.00;44418.84;5090188;28;20491;-74
2021/12/07 00:30:48;;;;;;;29.37;14.47;;;;;;;-143.84;100.00;44407.44;5091820;28;20505;-75
2021/12/07 00:33:29;;;;;;;23.63;13.90;;;;;;;-143.84;100.00;44413.13;5091473;28;20511;-75
2021/12/07 00:35:57;;;;;;;22.00;13.67;;;;;;;-143.84;100.00;44430.28;5091730;28;20509;-75
2021/12/07 00:38:26;;;;;;;24.40;14.40;;;;;;;-143.84;100.00;44437.88;5091846;28;20447;-75
2021/12/07 00:40:54;;;;;;;22.60;13.03;;;;;;;-143.84;100.00;44456.94;5091596;28;20484;-75
2021/12/07 00:43:25;;;;;;;19.40;13.97;;;;;;;-143.84;100.00;44464.53;5091686;28;20488;-75
2021/12/07 00:45:54;;;;;;;21.17;12.57;;;;;;;-143.84;100.00;44470.25;5091341;28;20451;-75
2021/12/07 00:48:22;;;;;;;24.80;13.77;;;;;;;-143.84;100.00;44475.97;5091194;28;20479;-75
2021/12/07 00:50:51;;;;;;;29.60;14.70;;;;;;;-143.84;100.00;44477.88;5090661;28;20507;-75
2021/12/07 00:53:18;;;;;;;27.83;13.57;;;;;;;-143.84;100.00;44481.69;5090147;28;20455;-75
2021/12/07 00:55:50;;;;;;;23.60;15.00;;;;;;;-143.84;100.00;44485.47;5090262;28;20440;-75
2021/12/07 00:58:22;;;;;;;36.03;15.60;;;;;;;-143.84;100.00;44485.47;5090782;28;20809;-75
2021/12/07 01:00:53;;;;;;;32.23;15.57;;;;;;;-143.84;100.00;44479.78;5090503;28;20518;-74
2021/12/07 01:03:21;;;;;;;23.83;15.57;;;;;;;-143.84;100.00;44477.88;5090764;28;20444;-74
2021/12/07 01:05:51;;;;;;;34.57;15.97;;;;;;;-143.84;100.00;44475.97;5090783;28;20857;-74
2021/12/07 01:08:37;;;;;;;27.93;13.93;;;;;;;-143.84;100.00;44481.69;5090942;28;20483;-75
2021/12/07 01:24:49;;;;;;;29.57;15.23;;;;;;;-143.84;100.00;44475.97;5090666;28;20470;-75
2021/12/07 01:27:18;;;;;;;26.00;15.47;;;;;;;-143.84;100.00;44474.06;5090694;28;20528;-75
2021/12/07 01:29:49;;;;;;;30.50;15.70;;;;;;;-143.84;100.00;44472.16;5090825;28;20493;-75
2021/12/07 01:32:32;;;;;;;27.50;13.80;;;;;;;-143.84;100.00;44466.44;5090869;28;20515;-75
2021/12/07 01:38:05;;;;;;;26.10;14.30;;;;;;;-143.84;100.00;44443.59;5086150;28;20447;-75
2021/12/07 01:40:46;;;;;;;34.10;13.77;;;;;;;-143.84;100.00;44441.69;5089211;28;20443;-75
2021/12/07 01:51:46;;;;;;;28.50;14.80;;;;;;;-143.84;100.00;44434.09;5090275;28;20430;-75
2021/12/07 01:59:55;;;;;;;23.87;12.37;;;;;;;-143.84;100.00;44357.94;5070492;28;20488;-75
2021/12/07 02:02:25;;;;;;;26.03;12.13;;;;;;;-143.84;100.00;44354.13;5088648;28;20508;-75
2021/12/07 02:04:55;;;;;;;22.37;11.70;;;;;;;-143.84;100.00;44329.38;5088611;28;20960;-75
2021/12/07 02:07:23;;;;;;;21.40;10.90;;;;;;;-143.84;100.00;44314.13;5088580;28;20472;-75
2021/12/07 02:09:55;;;;;;;34.47;14.00;;;;;;;-143.84;100.00;44295.09;5089141;28;20444;-75
2021/12/07 02:12:23;;;;;;;33.17;12.93;;;;;;;-143.84;100.00;44310.34;5089879;28;20475;-76
2021/12/07 02:14:50;;;;;;;33.23;12.17;;;;;;;-143.84;100.00;44350.31;5090668;28;20959;-76
2021/12/07 02:17:22;;;;;;;21.03;10.53;;;;;;;-143.84;100.00;44384.59;5090077;28;20469;-76
2021/12/07 02:19:50;;;;;;;24.80;11.80;;;;;;;-143.84;100.00;44434.09;5090656;28;20466;-76
2021/12/07 02:22:19;;;;;;;30.30;12.93;;;;;;;-143.84;100.00;44451.22;5090715;28;20439;-76
2021/12/07 02:24:46;;;;;;;26.80;11.63;;;;;;;-143.84;100.00;44458.81;5090373;28;20448;-76
2021/12/07 02:27:13;;;;;;;23.40;12.20;;;;;;;-143.84;100.00;44466.44;5090445;28;20483;-75
2021/12/07 02:29:41;;;;;;;27.80;12.43;;;;;;;-143.84;100.00;44464.53;5090055;28;20444;-75
2021/12/07 02:32:08;;;;;;;24.83;12.60;;;;;;;-143.84;100.00;44468.34;5089240;28;20452;-75
2021/12/07 02:34:42;;;;;;;24.17;13.70;;;;;;;-143.84;100.00;44474.06;5089202;28;20491;-75
2021/12/07 02:37:11;;;;;;;31.40;12.90;;;;;;;-143.84;100.00;44479.78;5089494;28;20504;-75
2021/12/07 02:39:44;;;;;;;30.40;12.70;;;;;;;-143.84;100.00;44475.97;5089587;28;20447;-75
2021/12/07 02:42:11;;;;;;;37.93;12.87;;;;;;;-143.84;100.00;44485.47;5089501;28;20442;-75
2021/12/07 02:44:39;;;;;;;19.63;11.20;;;;;;;-143.84;100.00;44479.78;5087876;28;20460;-75
2021/12/07 02:47:06;;;;;;;28.77;12.60;;;;;;;-143.84;100.00;44479.78;5089557;28;20499;-75
2021/12/07 02:49:33;;;;;;;33.67;14.20;;;;;;;-143.84;100.00;44477.88;5089228;28;20493;-75
2021/12/07 02:52:02;;;;;;;21.30;13.30;;;;;;;-143.84;100.00;44479.78;5089152;28;20969;-75
2021/12/07 02:54:30;;;;;;;20.13;12.40;;;;;;;-143.84;100.00;44479.78;5089533;28;20522;-75
2021/12/07 02:56:59;;;;;;;23.90;12.77;;;;;;;-143.84;100.00;44475.97;5069020;28;20784;-75
2021/12/07 02:59:27;;;;;;;26.77;12.60;;;;;;;-143.84;100.00;44472.16;5069115;28;20440;-75
2021/12/07 03:02:00;;;;;;;21.20;11.63;;;;;;;-143.84;100.00;44462.63;5071962;28;20456;-75
2021/12/07 03:04:33;;;;;;;20.63;10.93;;;;;;;-143.84;100.00;44466.44;5069194;28;20949;-75
2021/12/07 03:07:08;;;;;;;18.13;10.37;;;;;;;-143.84;100.00;44455.03;5068838;28;20446;-75
2021/12/07 03:09:57;;;;;;;31.80;10.67;;;;;;;-143.84;100.00;44443.59;5087840;28;20448;-75
2021/12/07 03:26:11;;;;;;;19.80;8.20;;;;;;;-143.84;100.00;44456.94;5088522;28;20482;-75
2021/12/07 03:28:42;;;;;;;42.23;8.20;;;;;;;-143.84;100.00;44458.81;5091224;28;20598;-75
2021/12/07 03:31:11;;;;;;;26.20;8.90;;;;;;;-143.84;100.00;44464.53;5093398;28;20447;-75
2021/12/07 03:33:38;;;;;;;28.27;7.97;;;;;;;-143.84;100.00;44470.25;5092764;28;20479;-75
2021/12/07 03:36:09;;;;;;;13.73;8.20;;;;;;;-143.84;100.00;44472.16;5093085;28;20434;-75
2021/12/07 03:38:38;;;;;;;22.50;8.23;;;;;;;-143.84;100.00;44468.34;5093041;28;20496;-75
2021/12/07 03:41:06;;;;;;;22.67;8.47;;;;;;;-143.84;100.00;44477.88;5092752;28;20447;-75
2021/12/07 03:43:33;;;;;;;23.73;8.93;;;;;;;-143.84;100.00;44470.25;5093269;28;20526;-75
2021/12/07 03:46:02;;;;;;;29.30;9.83;;;;;;;-143.84;100.00;44481.69;5092821;28;20477;-75
2021/12/07 03:48:29;;;;;;;26.53;9.30;;;;;;;-143.84;100.00;44481.69;5093039;28;20474;-75
2021/12/07 03:50:57;;;;;;;20.50;8.70;;;;;;;-143.84;100.00;44475.97;5093066;28;20448;-75
2021/12/07 03:53:24;;;;;;;27.93;9.00;;;;;;;-143.84;100.00;44479.78;5092873;28;20443;-75
2021/12/07 03:55:52;;;;;;;23.83;9.63;;;;;;;-143.84;100.00;44481.69;5093096;28;20488;-75
2021/12/07 03:58:19;;;;;;;25.63;9.63;;;;;;;-143.84;100.00;44477.88;5092543;28;20465;-75
2021/12/07 04:00:47;;;;;;;17.97;9.53;;;;;;;-143.84;100.00;44477.88;5092836;28;20436;-75
2021/12/07 04:03:18;;;;;;;24.57;11.20;;;;;;;-143.84;100.00;44479.78;5092310;28;20451;-75
2021/12/07 04:05:49;;;;;;;24.93;10.50;;;;;;;-143.84;100.00;44479.78;5092202;28;20444;-75
2021/12/07 04:08:19;;;;;;;47.03;10.77;;;;;;;-143.84;100.00;44481.69;5092322;28;20855;-75
2021/12/07 04:10:46;;;;;;;28.67;9.80;;;;;;;-143.84;100.00;44474.06;5092613;28;20436;-75
2021/12/07 04:13:14;;;;;;;17.57;10.37;;;;;;;-143.84;100.00;44466.44;5092202;28;20508;-75
2021/12/07 04:15:42;;;;;;;26.57;9.33;;;;;;;-143.84;100.00;44464.53;5092276;28;20508;-75
2021/12/07 04:18:09;;;;;;;16.30;8.30;;;;;;;-143.84;100.00;44458.81;5091884;28;20440;-75
2021/12/07 04:20:39;;;;;;;17.20;8.90;;;;;;;-143.84;100.00;44460.72;5092097;28;20444;-75
2021/12/07 04:23:07;;;;;;;29.23;9.97;;;;;;;-143.84;100.00;44456.94;5092069;28;20994;-75
2021/12/07 04:25:34;;;;;;;17.00;9.10;;;;;;;-143.84;100.00;44462.63;5092325;28;20435;-75
2021/12/07 04:28:01;;;;;;;26.67;9.30;;;;;;;-143.84;100.00;44460.72;5092094;28;20549;-75
2021/12/07 04:30:31;;;;;;;22.00;10.33;;;;;;;-143.84;100.00;44464.53;5092197;28;20500;-75
2021/12/07 04:33:00;;;;;;;15.90;9.20;;;;;;;-143.84;100.00;44464.53;5091472;28;20486;-75
2021/12/07 04:35:29;;;;;;;20.07;10.90;;;;;;;-143.84;100.00;44462.63;5091785;28;21293;-75
2021/12/07 04:37:58;;;;;;;37.27;11.87;;;;;;;-143.84;100.00;44458.81;5091861;28;20452;-75
2021/12/07 04:40:28;;;;;;;20.00;12.30;;;;;;;-143.84;100.00;44451.22;5091368;28;20774;-75
2021/12/07 04:42:56;;;;;;;23.93;11.23;;;;;;;-143.84;100.00;44435.97;5091740;28;20452;-75
2021/12/07 04:45:33;;;;;;;22.60;13.47;;;;;;;-143.84;100.00;44443.59;5091499;28;20439;-75
2021/12/07 04:48:23;;;;;;;23.83;11.53;;;;;;;-143.84;100.00;44445.50;5092000;28;20479;-75
2021/12/07 04:59:10;;;;;;;22.50;10.30;;;;;;;-143.84;100.00;44445.50;5088023;28;20451;-75
2021/12/07 05:01:37;;;;;;;24.17;10.03;;;;;;;-143.84;100.00;44460.72;5091498;28;20463;-75
2021/12/07 05:04:10;;;;;;;17.10;10.20;;;;;;;-143.84;100.00;44464.53;5091098;28;20501;-75
2021/12/07 05:06:44;;;;;;;25.83;9.83;;;;;;;-143.84;100.00;44466.44;5079491;28;20831;-76
2021/12/07 05:09:31;;;;;;;26.93;10.30;;;;;;;-143.84;100.00;44470.25;5071395;28;20524;-76
2021/12/07 05:12:19;;;;;;;18.80;9.50;;;;;;;-143.84;100.00;44470.25;5070739;28;20476;-76
2021/12/07 05:14:47;;;;;;;19.70;10.20;;;;;;;-143.84;100.00;44462.63;5072675;28;20463;-76
2021/12/07 05:17:25;;;;;;;18.80;8.90;;;;;;;-143.84;100.00;44456.94;5090521;28;20455;-75
2021/12/07 05:25:51;;;;;;;17.53;11.07;;;;;;;-143.84;100.00;44435.97;5073732;28;20431;-76
2021/12/07 05:39:15;;;;;;;26.07;9.57;;;;;;;-143.84;100.00;44367.44;5090136;28;20900;-75
2021/12/07 05:41:51;;;;;;;18.03;8.30;;;;;;;-143.84;100.00;44314.13;5089239;28;20851;-75
2021/12/07 05:44:19;;;;;;;10.67;7.63;;;;;;;-143.84;100.00;44291.28;5090137;28;20447;-75
2021/12/07 05:46:46;;;;;;;25.50;9.60;;;;;;;-143.84;100.00;44262.75;5089879;28;20447;-75
2021/12/07 05:49:13;;;;;;;19.53;6.53;;;;;;;-143.84;100.00;44238.00;5089161;28;20482;-75
2021/12/07 05:51:41;;;;;;;15.77;6.23;;;;;;;-143.84;100.00;44224.66;5089227;28;21240;-75
2021/12/07 05:54:08;;;;;;;17.97;6.73;;;;;;;-143.84;100.00;44224.66;5089956;28;21341;-75
2021/12/07 05:56:35;;;;;;;6.80;4.83;;;;;;;-143.84;100.00;44205.63;5089598;28;20425;-75
2021/12/07 05:59:04;;;;;;;12.23;6.20;;;;;;;-143.84;100.00;44201.81;5089725;28;21316;-75
2021/12/07 06:01:31;;;;;;;22.20;6.27;;;;;;;-143.84;100.00;44184.69;5088328;28;20456;-75
2021/12/07 06:03:58;;;;;;;8.20;6.03;;;;;;;-143.84;100.00;44196.13;5088231;28;20454;-75
2021/12/07 06:06:26;;;;;;;12.13;5.60;;;;;;;-143.84;100.00;44213.25;5088204;28;20450;-75
2021/12/07 06:08:53;;;;;;;12.00;5.00;;;;;;;-143.84;100.00;44203.72;5088701;28;20489;-75
2021/12/07 06:11:22;;;;;;;13.53;5.70;;;;;;;-143.84;100.00;44213.25;5088510;28;20940;-75
2021/12/07 06:13:49;;;;;;;11.60;6.90;;;;;;;-143.84;100.00;44230.38;5089249;28;20427;-75
2021/12/07 06:16:18;;;;;;;10.63;5.97;;;;;;;-143.84;100.00;44241.81;5089618;28;20448;-75
2021/12/07 06:18:46;;;;;;;12.43;7.30;;;;;;;-143.84;100.00;44241.81;5089281;28;20448;-75
2021/12/07 06:21:14;;;;;;;11.20;7.43;;;;;;;-143.84;100.00;44243.69;5089097;28;20446;-75
2021/12/07 06:23:42;;;;;;;11.30;7.07;;;;;;;-143.84;100.00;44251.31;5089682;28;20444;-75
2021/12/07 06:26:09;;;;;;;16.73;6.50;;;;;;;-143.84;100.00;44224.66;5088912;28;20525;-75
2021/12/07 06:28:37;;;;;;;13.80;5.97;;;;;;;-143.84;100.00;44220.84;5089390;28;20487;-75
2021/12/07 06:31:04;;;;;;;10.20;6.57;;;;;;;-143.84;100.00;44226.56;5085548;28;20443;-75
2021/12/07 06:33:33;;;;;;;9.73;6.20;;;;;;;-143.84;100.00;44236.09;5083677;28;20498;-75
2021/12/07 06:36:03;;;;;;;16.70;6.77;;;;;;;-143.84;100.00;44245.59;5088034;28;20447;-75
2021/12/07 06:38:33;;;;;;;8.00;6.07;;;;;;;-143.84;100.00;44213.25;5085647;28;20441;-75
2021/12/07 06:41:01;;;;;;;15.43;9.20;;;;;;;-143.84;100.00;44234.19;5086340;28;21318;-75
2021/12/07 06:43:29;;;;;;;9.60;7.57;;;;;;;-143.84;100.00;44247.50;5087873;28;20438;-75
2021/12/07 06:45:56;;;;;;;20.33;8.47;;;;;;;-143.84;100.00;44266.53;5088010;28;20453;-75
2021/12/07 06:48:24;;;;;;;11.10;7.83;;;;;;;-143.84;100.00;44255.13;5087432;28;20545;-75
2021/12/07 06:50:52;;;;;;;22.93;8.20;;;;;;;-143.84;100.00;44257.03;5086356;28;20993;-75
2021/12/07 06:53:20;;;;;;;16.10;8.93;;;;;;;-143.84;100.00;44258.94;5087766;28;20443;-76
2021/12/07 06:55:47;;;;;;;21.30;13.30;;;;;;;-143.84;100.00;44270.34;5087443;28;20452;-76
2021/12/07 06:58:14;;;;;;;13.33;9.97;;;;;;;-143.84;100.00;44293.19;5084685;28;20442;-76
2021/12/07 07:00:41;;;;;;;22.13;10.50;;;;;;;-143.84;100.00;44281.78;5087216;28;20442;-76
2021/12/07 07:03:09;;;;;;;15.07;9.70;;;;;;;-143.84;100.00;44298.91;5088528;28;20447;-76
2021/12/07 07:05:36;;;;;;;24.97;10.17;;;;;;;-143.84;100.00;44289.41;5091801;28;20453;-76
2021/12/07 07:08:06;;;;;;;28.93;9.67;;;;;;;-143.84;100.00;44285.59;5091846;28;20532;-76
2021/12/07 07:10:34;;;;;;;18.40;8.43;;;;;;;-143.84;100.00;44291.28;5091098;28;20604;-76
2021/12/07 07:13:01;;;;;;;23.97;11.30;;;;;;;-143.84;100.00;44283.69;5092104;28;20980;-76
2021/12/07 07:15:28;;;;;;;16.87;9.03;;;;;;;-143.84;100.00;44277.97;5091816;28;20459;-76
2021/12/07 07:17:56;;;;;;;16.63;10.17;;;;;;;-143.84;100.00;44258.94;5090884;28;20859;-74
2021/12/07 07:20:24;;;;;;;17.53;14.70;;;;;;;-143.84;100.00;44253.22;5090176;28;20505;-74
2021/12/07 07:22:51;;;;;;;30.87;10.63;;;;;;;-143.84;100.00;44211.34;5091004;28;20866;-74
2021/12/07 07:25:20;;;;;;;11.53;9.23;;;;;;;-143.84;100.00;44215.16;5090845;28;20802;-74
2021/12/07 07:27:47;;;;;;;11.93;10.57;;;;;;;-143.84;100.00;44194.22;5090502;28;20467;-73
2021/12/07 07:30:17;;;;;;;20.83;13.10;;;;;;;-143.84;100.00;44205.63;5090817;28;20506;-73
2021/12/07 07:32:45;;;;;;;14.20;9.77;;;;;;;-143.84;100.00;44188.50;5090898;28;20968;-74
2021/12/07 07:35:13;;;;;;;18.17;9.37;;;;;;;-143.84;100.00;44184.69;5090931;28;20447;-74
2021/12/07 07:37:41;;;;;;;19.20;12.83;;;;;;;-143.84;100.00;44169.47;5090883;28;20825;-74
2021/12/07 07:40:11;;;;;;;20.63;17.17;;;;;;;-143.84;100.00;44177.06;5090194;28;21043;-73
2021/12/07 07:42:40;;;;;;;18.23;11.20;;;;;;;-143.84;100.00;44190.41;5090379;28;20547;-74
2021/12/07 07:45:08;;;;;;;14.67;8.20;;;;;;;-143.84;100.00;44184.69;5090598;28;20459;-74
2021/12/07 07:47:35;;;;;;;11.77;9.17;;;;;;;-143.84;100.00;44211.34;5091077;28;20439;-74
2021/12/07 07:50:03;;;;;;;15.77;11.07;;;;;;;-143.84;100.00;44205.63;5091558;28;20475;-74
2021/12/07 07:52:30;;;;;;;15.93;11.57;;;;;;;-143.84;100.00;44220.84;5090799;28;20452;-74
2021/12/07 07:54:57;;;;;;;23.93;11.63;;;;;;;-143.84;100.00;44220.84;5090384;28;20459;-74
2021/12/07 07:57:35;;;;;;;23.40;12.07;;;;;;;-143.84;100.00;44215.16;5090106;28;20470;-73
2021/12/07 08:00:07;;;;;;;22.17;13.40;;;;;;;-143.84;100.00;44199.91;5090921;28;20599;-74
2021/12/07 08:02:34;;;;;;;21.23;15.63;;;;;;;-143.84;100.00;44194.22;5091150;28;20958;-74
2021/12/07 08:05:01;;;;;;;28.37;19.53;;;;;;;-143.84;100.00;44178.97;5091472;28;20822;-74
2021/12/07 08:07:28;;;;;;;26.50;15.50;;;;;;;-143.84;100.00;44192.31;5089786;28;20448;-73
2021/12/07 08:09:55;;;;;;;16.43;13.27;;;;;;;-143.84;100.00;44177.06;5089666;28;21063;-73
2021/12/07 08:12:23;;;;;;;16.87;13.40;;;;;;;-143.84;100.00;44167.56;5091246;28;20978;-73
2021/12/07 08:14:50;;;;;;;20.90;13.27;;;;;;;-143.84;100.00;44159.94;5090029;28;20445;-74
2021/12/07 08:17:18;;;;;;;19.30;13.27;;;;;;;-143.84;100.00;44161.84;5091018;28;20448;-73
2021/12/07 08:19:46;;;;;;;18.53;14.57;;;;;;;-143.84;100.00;44158.03;5090558;28;20468;-74
2021/12/07 08:22:13;;;;;;;19.73;14.27;;;;;;;-143.84;100.00;44159.94;5091105;28;20448;-74
2021/12/07 08:24:40;;;;;;;27.63;15.00;;;;;;;-143.84;100.00;44150.41;5087987;28;20447;-73
2021/12/07 08:27:07;;;;;;;23.40;15.17;;;;;;;-143.84;100.00;44133.28;5089802;28;20444;-73
2021/12/07 08:29:34;;;;;;;22.33;14.07;;;;;;;-143.84;100.00;44097.13;5090527;28;20486;-74
2021/12/07 08:32:02;;;;;;;25.97;14.37;;;;;;;-143.84;100.00;44100.94;5091118;28;20448;-74
2021/12/07 08:34:30;;;;;;;21.23;14.50;;;;;;;-143.84;100.00;44091.41;5090511;28;20498;-75
2021/12/07 08:36:57;;;;;;;22.00;16.67;;;;;;;-143.84;100.00;44068.56;5090882;28;20505;-75
2021/12/07 08:39:24;;;;;;;23.40;12.97;;;;;;;-143.84;99.98;44038.09;5090015;28;20439;-74
2021/12/07 08:41:52;;;;;;;20.00;13.17;;;;;;;-143.84;99.53;44019.06;5090621;28;20561;-74
2021/12/07 08:44:19;;;;;;;17.53;12.27;;;;;;;-143.84;99.61;44019.06;5090612;28;20935;-73
2021/12/07 08:46:46;;;;;;;158.20;71.23;;;;;;;-143.84;99.43;44011.47;5090443;28;20451;-74
2021/12/07 08:49:15;;;;;;;46.53;27.70;;;;;;;-143.84;98.30;43975.28;5089638;28;20481;-73
2021/12/07 08:51:44;;;;;;;31.13;18.10;;;;;;;-143.84;98.06;43960.06;5085490;28;20476;-75
2021/12/07 08:54:25;;;;;;;21.00;11.90;;;;;;;-143.84;98.06;43965.78;5088586;28;20454;-73
2021/12/07 08:59:39;;;;;;;22.73;12.90;;;;;;;-143.84;98.26;43969.59;5088707;28;20446;-74
2021/12/07 09:02:06;;;;;;;18.83;12.37;;;;;;;-143.84;98.44;43967.69;5089117;28;20528;-73
2021/12/07 09:04:33;;;;;;;17.17;13.07;;;;;;;-143.84;98.38;43975.28;5089704;28;20449;-75
2021/12/07 09:07:02;;;;;;;21.10;14.73;;;;;;;-143.84;98.58;44005.75;5090091;28;20457;-73
2021/12/07 09:09:30;;;;;;;15.33;13.37;;;;;;;-143.84;98.32;43971.47;5088905;28;20481;-73
2021/12/07 09:11:57;;;;;;;20.27;13.50;;;;;;;-143.84;97.92;43958.16;5090002;28;20455;-74
2021/12/07 09:14:25;;;;;;;19.17;12.67;;;;;;;-143.84;96.87;43927.69;5089789;28;20452;-74
2021/12/07 09:16:53;;;;;;;19.93;13.80;;;;;;;-143.84;96.89;43916.28;5089828;28;20533;-74
2021/12/07 12:07:47;;;;;;;16.87;8.87;;;;;;;-143.84;100.00;44234.19;5042280;28;20487;-74
2021/12/07 12:10:17;;;;;;;11.57;9.80;;;;;;;-143.84;100.00;44230.38;5037490;28;20473;-72
2021/12/07 12:13:06;;;;;;;20.10;8.90;;;;;;;-143.84;100.00;44236.09;5042095;28;20448;-72
2021/12/07 12:15:43;;;;;;;23.20;9.13;;;;;;;-143.84;100.00;44222.75;5048397;28;20473;-80
2021/12/07 12:18:16;;;;;;;16.40;9.53;;;;;;;-143.84;100.00;44224.66;5053244;28;20514;-79
2021/12/07 12:21:01;;;;;;;11.50;8.17;;;;;;;-143.84;100.00;44243.69;5043440;28;20441;-72
2021/12/07 12:23:39;;;;;;;27.23;9.17;;;;;;;-143.84;100.00;44251.31;5044218;28;20456;-73
2021/12/07 12:26:09;;;;;;;31.70;7.47;;;;;;;-143.84;100.00;44253.22;5038595;28;20975;-73
2021/12/07 12:28:40;;;;;;;30.80;7.90;;;;;;;-143.84;100.00;44249.41;5050532;28;20442;-73
2021/12/07 12:31:10;;;;;;;19.93;8.30;;;;;;;-143.84;100.00;44260.84;5048730;28;20473;-73
2021/12/07 12:33:49;;;;;;;17.73;6.47;;;;;;;-143.84;100.00;44266.53;5048069;28;20817;-80
2021/12/07 12:36:17;;;;;;;22.37;7.33;;;;;;;-143.84;100.00;44274.16;5051774;28;20850;-81
2021/12/07 12:38:49;;;;;;;16.17;7.87;;;;;;;-143.84;100.00;44283.69;5052678;28;20488;-81
2021/12/07 12:41:18;;;;;;;12.70;6.57;;;;;;;-143.84;100.00;44281.78;5053180;28;20957;-82
2021/12/07 12:43:50;;;;;;;25.47;7.80;;;;;;;-143.84;100.00;44268.44;5052811;28;20426;-81
2021/12/07 12:46:21;;;;;;;20.23;7.13;;;;;;;-143.84;100.00;44245.59;5052812;28;20490;-81
2021/12/07 12:48:51;;;;;;;21.47;6.97;;;;;;;-143.84;100.00;44238.00;5052766;28;20446;-82
2021/12/07 12:51:19;;;;;;;18.40;6.70;;;;;;;-143.84;100.00;44226.56;5045795;28;20474;-82
2021/12/07 12:53:49;;;;;;;20.23;8.50;;;;;;;-143.84;100.00;44222.75;5032607;28;20454;-81
2021/12/07 12:56:19;;;;;;;22.00;9.50;;;;;;;-143.84;100.00;44215.16;5032799;28;20503;-81
2021/12/07 12:58:49;;;;;;;27.67;9.40;;;;;;;-143.84;100.00;44194.22;5032940;28;20758;-81
2021/12/07 13:01:20;;;;;;;31.27;10.53;;;;;;;-143.84;100.00;44182.78;5032481;28;20450;-81
2021/12/07 13:04:05;;;;;;;26.03;10.70;;;;;;;-143.84;100.00;44165.66;5032777;28;20435;-81
2021/12/07 13:07:01;;;;;;;12.87;8.10;;;;;;;-143.84;100.00;44158.03;5032697;28;20460;-81
2021/12/07 13:09:34;;;;;;;23.13;8.13;;;;;;;-143.84;100.00;44146.63;5041211;28;20486;-81
2021/12/07 13:12:04;;;;;;;17.03;6.37;;;;;;;-143.84;100.00;44137.09;5053017;28;20500;-81
2021/12/07 13:14:36;;;;;;;14.07;5.67;;;;;;;-143.84;100.00;44085.69;5052816;28;21022;-81
2021/12/07 13:17:07;;;;;;;10.80;5.50;;;;;;;-143.84;100.00;44080.00;5052327;28;20499;-81
2021/12/07 13:20:06;;;;;;;17.20;6.87;;;;;;;-143.84;100.00;44097.13;5052442;28;20427;-81
2021/12/07 13:22:39;;;;;;;12.23;5.50;;;;;;;-143.84;100.00;44078.09;5035405;28;20850;-80
2021/12/07 13:25:11;;;;;;;13.73;5.77;;;;;;;-143.84;100.00;44066.66;5036311;28;20476;-81
2021/12/07 13:27:38;;;;;;;17.13;6.57;;;;;;;-143.84;100.00;44074.28;5053008;28;21049;-81
2021/12/07 13:30:08;;;;;;;10.33;7.83;;;;;;;-143.84;100.00;44076.19;5052681;28;20477;-81
2021/12/07 13:32:35;;;;;;;8.90;7.70;;;;;;;-143.84;100.00;44085.69;5052732;28;20491;-81
2021/12/07 13:35:06;;;;;;;12.37;7.07;;;;;;;-143.84;100.00;44053.34;5052024;28;20522;-81
2021/12/07 13:37:47;;;;;;;12.60;7.60;;;;;;;-143.84;100.00;44051.44;5052579;28;20443;-81
2021/12/07 13:40:22;;;;;;;19.03;7.37;;;;;;;-143.84;100.00;44032.41;5052250;28;20430;-79
2021/12/07 13:42:52;;;;;;;14.00;7.00;;;;;;;-143.84;99.96;44032.41;5052024;28;20431;-80
2021/12/07 13:45:22;;;;;;;17.50;8.60;;;;;;;-143.84;100.00;44030.50;5047510;28;20442;-78
2021/12/07 13:47:51;;;;;;;15.50;7.83;;;;;;;-143.84;99.80;44036.22;5030017;28;20912;-79
2021/12/07 13:50:23;;;;;;;13.07;8.33;;;;;;;-143.84;100.00;44036.22;5033273;28;20484;-79
2021/12/07 13:52:52;;;;;;;16.03;8.20;;;;;;;-143.84;99.71;44030.50;5034526;28;20459;-80
2021/12/07 13:55:24;;;;;;;12.80;8.17;;;;;;;-143.84;99.85;44034.31;5029867;28;20430;-80
2021/12/07 13:57:54;;;;;;;15.40;8.20;;;;;;;-143.84;99.83;44024.78;5034341;28;20449;-80
2021/12/07 14:00:24;;;;;;;20.83;8.63;;;;;;;-143.84;99.82;44036.22;5031146;28;20509;-81
2021/12/07 14:02:55;;;;;;;21.70;9.30;;;;;;;-143.84;99.88;44034.31;5031020;28;20517;-80
2021/12/07 14:05:24;;;;;;;25.50;11.73;;;;;;;-143.84;99.83;44028.59;5031271;28;20443;-79
2021/12/07 14:07:54;;;;;;;18.00;11.10;;;;;;;-143.84;100.00;44040.00;5035859;28;20451;-82
2021/12/07 14:10:26;;;;;;;27.53;18.63;;;;;;;-143.84;100.00;44047.63;5032386;28;20523;-81
2021/12/07 14:12:54;;;;;;;22.70;18.60;;;;;;;-143.84;100.00;44062.84;5030555;28;20931;-81
2021/12/07 14:15:29;;;;;;;25.67;16.77;;;;;;;-143.84;100.00;44059.03;5038006;28;20451;-80
2021/12/07 14:18:00;;;;;;;25.80;14.70;;;;;;;-143.84;100.00;44062.84;5032712;28;20451;-82
2021/12/07 14:20:37;;;;;;;31.00;12.70;;;;;;;-143.84;100.00;44059.03;5039039;28;20432;-81
2021/12/07 14:23:21;;;;;;;18.43;10.90;;;;;;;-143.84;100.00;44059.03;5035239;28;20507;-81
2021/12/07 14:25:54;;;;;;;21.77;11.10;;;;;;;-143.84;100.00;44059.03;5032496;28;20448;-81
2021/12/07 14:28:35;;;;;;;28.60;11.63;;;;;;;-143.84;100.00;44040.00;5040967;28;20471;-81
2021/12/07 14:31:06;;;;;;;18.83;10.73;;;;;;;-143.84;100.00;44062.84;5041828;28;21162;-82
2021/12/07 14:33:38;;;;;;;17.93;10.30;;;;;;;-143.84;100.00;44080.00;5043270;28;20452;-81
2021/12/07 14:36:05;;;;;;;23.93;8.63;;;;;;;-143.84;100.00;44074.28;5043465;28;20503;-81
2021/12/07 14:38:34;;;;;;;18.60;8.50;;;;;;;-143.84;100.00;44081.88;5042776;28;20446;-81
2021/12/07 14:41:07;;;;;;;17.67;10.00;;;;;;;-143.84;100.00;44080.00;5042870;28;20539;-81
2021/12/07 14:43:34;;;;;;;14.50;9.87;;;;;;;-143.84;100.00;44099.03;5042712;28;20449;-81
2021/12/07 14:46:04;;;;;;;21.50;10.43;;;;;;;-143.84;100.00;44100.94;5044088;28;20501;-81
2021/12/07 14:48:32;;;;;;;17.37;10.40;;;;;;;-143.84;100.00;44100.94;5040571;28;20898;-82
2021/12/07 14:51:04;;;;;;;18.20;10.00;;;;;;;-143.84;100.00;44100.94;5042450;28;20521;-81
2021/12/07 14:53:37;;;;;;;14.03;10.50;;;;;;;-143.84;100.00;44102.84;5041397;28;20862;-81
2021/12/07 14:56:07;;;;;;;20.17;9.30;;;;;;;-143.84;100.00;44100.94;5042286;28;20449;-81
2021/12/07 14:58:35;;;;;;;18.40;10.40;;;;;;;-143.84;100.00;44095.22;5041656;28;21635;-81
2021/12/07 15:01:05;;;;;;;14.93;10.20;;;;;;;-143.84;100.00;44097.13;5042848;28;20468;-81
2021/12/07 15:03:38;;;;;;;13.13;9.30;;;;;;;-143.84;100.00;44076.19;5042102;28;20442;-81
2021/12/07 15:06:06;;;;;;;24.90;10.53;;;;;;;-143.84;100.00;44089.50;5043474;28;20442;-81
2021/12/07 15:08:34;;;;;;;14.30;11.07;;;;;;;-143.84;100.00;44083.78;5047052;28;20480;-81
2021/12/07 15:11:02;;;;;;;19.80;12.13;;;;;;;-143.84;100.00;44091.41;5041760;28;20565;-82